createdAt,value
2022-10-27T00:03:57.781Z,53.61
2022-10-27T00:10:45.181Z,53.53
2022-10-27T00:17:34.623Z,54.03
2022-10-27T00:24:20.062Z,53.62
2022-10-27T00:31:09.789Z,54.10
2022-10-27T00:37:57.743Z,53.52
2022-10-27T00:44:45.409Z,53.96
2022-10-27T00:51:30.990Z,53.57
2022-10-27T00:58:22.420Z,53.47
2022-10-27T01:05:14.669Z,53.28
2022-10-27T01:12:00.050Z,53.59
2022-10-27T01:19:01.511Z,53.36
2022-10-27T01:26:47.025Z,53.62
2022-10-27T01:33:43.675Z,53.62
2022-10-27T01:40:35.275Z,53.54
2022-10-27T01:47:20.899Z,53.41
2022-10-27T01:54:09.879Z,53.32
2022-10-27T02:08:43.883Z,53.48
2022-10-27T02:15:40.709Z,53.82
2022-10-27T02:22:29.530Z,53.53
2022-10-27T02:29:20.116Z,53.57
2022-10-27T02:36:09.101Z,53.82
2022-10-27T02:42:54.652Z,53.53
2022-10-27T03:03:30.737Z,53.61
2022-10-27T03:10:16.173Z,53.58
2022-10-27T03:17:02.013Z,54.11
2022-10-27T03:23:49.981Z,53.71
2022-10-27T03:30:35.376Z,53.97
2022-10-27T03:37:20.764Z,54.08
2022-10-27T03:44:08.896Z,54.00
2022-10-27T03:50:54.786Z,53.95
2022-10-27T03:57:40.146Z,54.02
2022-10-27T04:04:28.102Z,53.97
2022-10-27T04:11:13.481Z,53.68
2022-10-27T04:18:00.973Z,53.84
2022-10-27T04:24:48.900Z,53.88
2022-10-27T04:31:34.233Z,53.73
2022-10-27T04:38:19.625Z,53.28
2022-10-27T04:45:08.712Z,52.93
2022-10-27T04:51:54.062Z,52.91
2022-10-27T04:58:39.485Z,52.83
2022-10-27T05:05:30.186Z,52.83
2022-10-27T05:12:15.533Z,52.83
2022-10-27T05:19:00.909Z,52.47
2022-10-27T05:25:53.847Z,52.76
2022-10-27T05:32:43.303Z,52.16
2022-10-27T05:39:32.671Z,52.25
2022-10-27T05:46:20.610Z,52.01
2022-10-27T05:53:06.680Z,52.54
2022-10-27T05:59:52.013Z,52.31
2022-10-27T06:06:39.941Z,52.49
2022-10-27T06:13:25.279Z,52.09
2022-10-27T06:20:12.403Z,52.35
2022-10-27T06:27:00.358Z,52.30
2022-10-27T06:33:45.954Z,52.33
2022-10-27T06:40:31.433Z,52.23
2022-10-27T06:47:19.434Z,52.77
2022-10-27T06:54:04.840Z,52.72
2022-10-27T07:00:50.180Z,53.03
2022-10-27T07:07:38.932Z,53.04
2022-10-27T07:14:24.307Z,53.24
2022-10-27T07:21:09.944Z,53.47
2022-10-27T07:27:58.565Z,53.78
2022-10-27T07:34:44.040Z,53.98
2022-10-27T07:41:29.388Z,53.86
2022-10-27T07:48:19.056Z,54.13
2022-10-27T07:55:04.375Z,54.57
2022-10-27T08:01:49.863Z,54.35
2022-10-27T08:08:37.803Z,54.71
2022-10-27T08:15:23.399Z,54.93
2022-10-27T08:22:13.053Z,55.22
2022-10-27T08:29:02.075Z,55.41
2022-10-27T08:35:47.447Z,55.44
2022-10-27T08:42:44.803Z,55.61
2022-10-27T08:49:43.452Z,55.85
2022-10-27T08:56:41.571Z,55.79
2022-10-27T09:03:47.739Z,56.17
2022-10-27T09:10:46.112Z,55.79
2022-10-27T09:17:35.397Z,56.19
2022-10-27T09:24:26.616Z,56.11
2022-10-27T09:31:20.321Z,56.88
2022-10-27T09:38:05.768Z,56.69
2022-10-27T09:44:59.322Z,56.93
2022-10-27T09:51:53.185Z,57.04
2022-10-27T09:58:51.882Z,57.10
2022-10-27T10:05:40.328Z,57.17
2022-10-27T10:12:29.458Z,57.03
2022-10-27T10:19:21.048Z,57.14
2022-10-27T10:26:20.551Z,57.74
2022-10-27T10:33:10.354Z,57.88
2022-10-27T10:39:55.718Z,57.98
2022-10-27T10:46:44.987Z,58.21
2022-10-27T10:53:38.612Z,58.39
2022-10-27T11:00:25.420Z,58.71
2022-10-27T11:07:23.888Z,59.00
2022-10-27T11:14:18.849Z,58.83
2022-10-27T11:21:13.180Z,58.88
2022-10-27T11:28:05.833Z,58.77
2022-10-27T11:35:07.527Z,58.99
2022-10-27T11:42:01.172Z,58.82
2022-10-27T11:48:54.466Z,59.07
2022-10-27T11:56:04.183Z,59.18
2022-10-27T12:10:46.661Z,58.17
2022-10-27T12:17:39.887Z,58.79
2022-10-27T12:24:33.488Z,59.10
2022-10-27T12:31:27.865Z,59.29
2022-10-27T12:38:21.375Z,58.96
2022-10-27T12:45:35.251Z,58.77
2022-10-27T12:52:26.034Z,58.95
2022-10-27T12:59:26.854Z,58.85
2022-10-27T13:06:33.343Z,58.64
2022-10-27T13:13:49.143Z,58.02
2022-10-27T13:20:58.187Z,58.31
2022-10-27T13:27:50.985Z,58.24
2022-10-27T13:34:39.280Z,58.35
2022-10-27T13:41:53.208Z,58.45
2022-10-27T13:48:38.602Z,58.25
2022-10-27T13:55:39.870Z,57.80
2022-10-27T14:02:37.543Z,57.86
2022-10-27T14:09:32.897Z,57.89
2022-10-27T14:16:26.876Z,57.26
2022-10-27T14:23:16.793Z,57.51
2022-10-27T14:30:20.596Z,57.33
2022-10-27T14:37:12.993Z,56.72
2022-10-27T14:44:02.714Z,57.04
2022-10-27T14:50:48.768Z,56.80
2022-10-27T14:57:39.506Z,57.27
2022-10-27T15:04:27.322Z,56.85
2022-10-27T15:11:19.881Z,57.23
2022-10-27T15:25:24.707Z,57.08
2022-10-27T15:32:22.270Z,57.04
2022-10-27T15:39:20.496Z,57.02
2022-10-27T15:46:17.630Z,57.18
2022-10-27T15:53:17.201Z,57.30
2022-10-27T16:00:25.323Z,57.75
2022-10-27T16:07:33.905Z,57.09
2022-10-27T16:14:19.625Z,57.11
2022-10-27T16:21:07.949Z,57.03
2022-10-27T16:27:53.633Z,57.18
2022-10-27T16:34:38.987Z,57.07
2022-10-27T16:41:31.512Z,57.46
2022-10-27T16:48:17.697Z,57.19
2022-10-27T16:55:06.040Z,57.39
2022-10-27T17:01:54.142Z,56.98
2022-10-27T17:08:40.988Z,57.06
2022-10-27T17:15:26.334Z,57.06
2022-10-27T17:22:14.296Z,57.16
2022-10-27T17:28:59.919Z,57.22
2022-10-27T17:35:45.253Z,57.35
2022-10-27T17:42:33.558Z,57.34
2022-10-27T17:49:18.992Z,57.49
2022-10-27T17:56:06.517Z,57.79
2022-10-27T18:02:57.689Z,57.81
2022-10-27T18:09:45.150Z,57.32
2022-10-27T18:16:34.286Z,57.11
2022-10-27T18:23:22.404Z,57.32
2022-10-27T18:30:09.739Z,57.76
2022-10-27T18:36:55.109Z,57.46
2022-10-27T18:43:45.452Z,57.45
2022-10-27T18:50:30.922Z,57.47
2022-10-27T18:57:16.668Z,57.47
2022-10-27T19:04:08.377Z,57.40
2022-10-27T19:10:55.891Z,57.46
2022-10-27T19:17:44.589Z,57.56
2022-10-27T19:24:32.898Z,57.37
2022-10-27T19:31:21.664Z,57.10
2022-10-27T19:38:07.138Z,57.08
2022-10-27T19:44:55.583Z,56.96
2022-10-27T19:51:42.257Z,57.39
2022-10-27T19:58:27.642Z,57.33
2022-10-27T20:05:15.601Z,57.45
2022-10-27T20:12:02.566Z,56.95
2022-10-27T20:18:48.690Z,57.44
2022-10-27T20:25:37.088Z,56.52
2022-10-27T20:32:22.500Z,57.26
2022-10-27T20:39:09.579Z,57.42
2022-10-27T20:46:00.541Z,57.44
2022-10-27T20:52:46.421Z,57.00
2022-10-27T20:59:31.769Z,57.19
2022-10-27T21:06:19.716Z,57.19
2022-10-27T21:13:05.136Z,57.30
2022-10-27T21:19:50.516Z,56.72
2022-10-27T21:26:38.732Z,56.81
2022-10-27T21:33:24.077Z,56.83
2022-10-27T21:40:12.218Z,56.78
2022-10-27T21:47:00.199Z,56.83
2022-10-27T21:53:46.285Z,56.45
2022-10-27T22:00:31.744Z,56.08
2022-10-27T22:07:19.801Z,56.53
2022-10-27T22:14:05.694Z,56.33
2022-10-27T22:20:51.093Z,56.31
2022-10-27T22:27:39.114Z,56.40
2022-10-27T22:34:24.460Z,56.53
2022-10-27T22:41:12.908Z,56.63
2022-10-27T22:48:01.543Z,56.95
2022-10-27T22:54:46.918Z,56.80
2022-10-27T23:01:34.974Z,56.35
2022-10-27T23:08:23.025Z,56.82
2022-10-27T23:15:09.918Z,56.67
2022-10-27T23:21:55.288Z,56.41
2022-10-27T23:28:43.233Z,56.65
2022-10-27T23:35:28.661Z,56.43
2022-10-27T23:42:14.009Z,56.17
2022-10-27T23:49:02.426Z,56.30
2022-10-27T23:55:47.853Z,56.54
